Time;durP1;ratioP1;P1;durP2;ratioP2;P2;SDS_P1;SDS_P2;PMS_P1;PMS_P2;Temp;Humidity;BMP_temperature;BMP_pressure;BME280_temperature;BME280_humidity;BME280_pressure;Samples;Min_cycle;Max_cycle;Signal;HPM_P1;HPM_P2
2021/09/11 00:02:22;;;;;;;23.53;10.07;;;10.50;99.90;;;;;;4389119;28;659107;-70
2021/09/11 00:05:10;;;;;;;18.37;9.40;;;10.40;99.90;;;;;;4369845;28;660126;-68
2021/09/11 00:07:58;;;;;;;16.73;9.53;;;10.40;99.90;;;;;;4368282;28;657933;-68
2021/09/11 00:10:47;;;;;;;17.95;9.35;;;10.30;99.90;;;;;;4379933;28;658759;-69
2021/09/11 00:13:34;;;;;;;15.83;9.93;;;10.20;99.90;;;;;;4358666;28;657960;-68
2021/09/11 00:16:22;;;;;;;17.07;10.13;;;10.30;99.90;;;;;;4373829;28;657648;-69
2021/09/11 00:19:10;;;;;;;18.13;9.30;;;10.30;99.90;;;;;;4373922;28;660061;-69
2021/09/11 00:21:57;;;;;;;15.70;9.13;;;10.20;99.90;;;;;;4358131;28;657463;-69
2021/09/11 00:24:45;;;;;;;13.90;8.43;;;10.20;99.90;;;;;;4377043;28;658238;-68
2021/09/11 00:27:34;;;;;;;13.57;8.60;;;10.20;99.90;;;;;;4366888;28;657322;-69
2021/09/11 00:30:21;;;;;;;13.97;8.60;;;10.20;99.90;;;;;;4386316;28;657144;-68
2021/09/11 00:33:09;;;;;;;13.00;7.90;;;10.20;99.90;;;;;;4357828;28;658389;-69
2021/09/11 00:35:56;;;;;;;16.50;8.53;;;10.20;99.90;;;;;;4375671;28;657901;-68
2021/09/11 00:38:44;;;;;;;16.20;8.50;;;10.30;99.90;;;;;;4356792;28;659220;-68
2021/09/11 00:41:32;;;;;;;17.23;8.40;;;10.20;99.90;;;;;;4379875;28;657575;-68
2021/09/11 00:44:21;;;;;;;13.80;8.50;;;10.20;99.90;;;;;;4353011;28;659259;-68
2021/09/11 00:47:08;;;;;;;15.33;9.37;;;10.30;99.90;;;;;;4359969;28;658332;-69
2021/09/11 00:49:56;;;;;;;14.60;8.37;;;10.20;99.90;;;;;;4380933;28;658130;-68
2021/09/11 00:52:44;;;;;;;16.47;8.00;;;10.20;99.90;;;;;;4361365;28;658713;-69
2021/09/11 00:55:31;;;;;;;16.83;8.53;;;10.20;99.90;;;;;;4385335;28;658127;-68
2021/09/11 00:58:19;;;;;;;15.23;8.87;;;10.20;99.90;;;;;;4359299;28;657953;-68
2021/09/11 01:01:08;;;;;;;20.83;9.67;;;10.10;99.90;;;;;;4383808;28;658345;-68
2021/09/11 01:03:55;;;;;;;15.33;8.50;;;10.10;99.90;;;;;;4348735;28;658513;-68
2021/09/11 01:06:43;;;;;;;19.80;10.47;;;10.10;99.90;;;;;;4312700;28;1237209;-69
2021/09/11 01:09:30;;;;;;;15.77;9.53;;;10.10;99.90;;;;;;4378286;28;659939;-69
2021/09/11 01:12:19;;;;;;;15.97;8.60;;;10.10;99.90;;;;;;4363712;28;658355;-68
2021/09/11 01:15:08;;;;;;;16.10;8.93;;;10.10;99.90;;;;;;4386697;28;657967;-68
2021/09/11 01:17:57;;;;;;;19.77;10.13;;;10.10;99.90;;;;;;4368720;28;658836;-69
2021/09/11 01:20:44;;;;;;;23.87;10.80;;;10.10;99.90;;;;;;4366940;28;660080;-69
2021/09/11 01:23:33;;;;;;;19.90;9.87;;;10.00;99.90;;;;;;4375272;28;658942;-68
2021/09/11 01:26:22;;;;;;;20.47;11.67;;;10.00;99.90;;;;;;4363216;28;657890;-69
2021/09/11 01:29:10;;;;;;;26.67;12.97;;;10.00;99.90;;;;;;4351724;28;660273;-69
2021/09/11 01:31:58;;;;;;;27.25;11.82;;;9.90;99.90;;;;;;4362359;28;659136;-69
2021/09/11 01:34:46;;;;;;;26.63;10.97;;;9.90;99.90;;;;;;4390908;28;657693;-69
2021/09/11 01:37:33;;;;;;;19.67;10.30;;;10.00;99.90;;;;;;4363163;28;657848;-69
2021/09/11 01:40:22;;;;;;;19.93;10.63;;;10.00;99.90;;;;;;4371145;28;658576;-69
2021/09/11 01:43:11;;;;;;;22.80;12.23;;;9.90;99.90;;;;;;4354566;28;659636;-69
2021/09/11 01:45:59;;;;;;;21.13;11.13;;;9.90;99.90;;;;;;4354257;28;658090;-69
2021/09/11 01:48:47;;;;;;;20.73;10.67;;;9.90;99.90;;;;;;4377492;28;658094;-69
2021/09/11 01:51:34;;;;;;;24.90;11.90;;;9.90;99.90;;;;;;4358000;28;658745;-69
2021/09/11 01:54:21;;;;;;;20.93;10.93;;;9.90;99.90;;;;;;4387828;28;657962;-68
2021/09/11 01:57:10;;;;;;;29.00;14.07;;;9.90;99.90;;;;;;4359133;28;658926;-69
2021/09/11 01:59:59;;;;;;;22.63;11.80;;;9.90;99.90;;;;;;4371460;28;657608;-69
2021/09/11 02:02:46;;;;;;;23.25;11.57;;;9.90;99.90;;;;;;4379255;28;657492;-68
2021/09/11 02:05:34;;;;;;;19.03;9.17;;;9.80;99.90;;;;;;4355947;28;659561;-69
2021/09/11 02:08:22;;;;;;;24.30;10.40;;;9.80;99.90;;;;;;4386134;28;656415;-68
2021/09/11 02:11:09;;;;;;;23.60;11.23;;;9.80;99.90;;;;;;4366680;28;659310;-69
2021/09/11 02:13:56;;;;;;;24.00;12.47;;;9.80;99.90;;;;;;4369564;28;657248;-69
2021/09/11 02:16:45;;;;;;;21.80;10.43;;;9.80;99.90;;;;;;4355556;28;658922;-69
2021/09/11 02:19:33;;;;;;;23.33;11.90;;;9.80;99.90;;;;;;4363340;28;658287;-69
2021/09/11 02:22:21;;;;;;;16.17;8.43;;;9.90;99.90;;;;;;4365885;28;657848;-69
2021/09/11 02:25:09;;;;;;;16.53;8.00;;;9.80;99.90;;;;;;4362452;28;656465;-68
2021/09/11 02:27:56;;;;;;;21.47;9.47;;;9.80;99.90;;;;;;4394773;28;656266;-68
2021/09/11 02:30:44;;;;;;;15.80;8.20;;;9.80;99.90;;;;;;4355070;28;656980;-69
2021/09/11 02:33:33;;;;;;;16.73;9.10;;;9.70;99.90;;;;;;4389294;28;656458;-68
2021/09/11 02:36:21;;;;;;;19.13;8.93;;;9.70;99.90;;;;;;4371854;28;657656;-68
2021/09/11 02:39:09;;;;;;;15.37;8.10;;;9.70;99.90;;;;;;4377255;28;656765;-68
2021/09/11 02:41:56;;;;;;;17.53;8.90;;;9.70;99.90;;;;;;4396012;28;657497;-68
2021/09/11 02:44:44;;;;;;;23.13;11.13;;;9.70;99.90;;;;;;4377191;28;657836;-69
2021/09/11 02:47:31;;;;;;;27.58;13.35;;;9.80;99.90;;;;;;4394412;28;657116;-69
2021/09/11 02:50:20;;;;;;;18.07;9.30;;;9.80;99.90;;;;;;4376138;28;658382;-69
2021/09/11 02:53:08;;;;;;;20.73;9.07;;;9.80;99.90;;;;;;4377222;28;656788;-69
2021/09/11 02:55:55;;;;;;;18.33;9.27;;;9.80;99.90;;;;;;4394649;28;656696;-68
2021/09/11 02:58:43;;;;;;;18.67;8.63;;;9.80;99.90;;;;;;4376783;28;656437;-69
2021/09/11 03:01:31;;;;;;;17.80;9.00;;;9.80;99.90;;;;;;4396099;28;656956;-69
2021/09/11 03:04:19;;;;;;;12.30;6.90;;;9.80;99.90;;;;;;4377068;28;656317;-69
2021/09/11 03:07:08;;;;;;;19.23;8.30;;;9.80;99.90;;;;;;4395617;28;657365;-68
2021/09/11 03:09:55;;;;;;;20.00;10.07;;;9.80;99.90;;;;;;4373189;28;658257;-68
2021/09/11 03:12:43;;;;;;;17.70;8.87;;;9.80;99.90;;;;;;4374275;28;657736;-68
2021/09/11 03:15:30;;;;;;;13.90;7.73;;;9.70;99.90;;;;;;4396343;28;657365;-69
2021/09/11 03:18:18;;;;;;;13.97;7.83;;;9.80;99.90;;;;;;4375950;28;656392;-69
2021/09/11 03:21:07;;;;;;;12.67;7.00;;;9.70;99.90;;;;;;4396771;28;657143;-68
2021/09/11 03:23:58;;;;;;;14.40;7.57;;;9.70;99.90;;;;;;4373055;28;657664;-69
2021/09/11 03:26:47;;;;;;;17.23;8.00;;;9.70;99.90;;;;;;4372788;28;656628;-68
2021/09/11 03:29:35;;;;;;;16.87;8.43;;;9.70;99.90;;;;;;4373120;28;658254;-69
2021/09/11 03:32:25;;;;;;;15.43;7.33;;;9.70;99.90;;;;;;4376719;28;656653;-69
2021/09/11 03:35:14;;;;;;;14.53;7.40;;;9.60;99.90;;;;;;4376660;28;656248;-70
2021/09/11 03:38:02;;;;;;;14.20;7.50;;;9.60;99.90;;;;;;4395250;28;656454;-69
2021/09/11 03:40:53;;;;;;;13.07;6.90;;;9.60;99.90;;;;;;4372233;28;658439;-69
2021/09/11 03:43:42;;;;;;;13.05;6.32;;;9.60;99.90;;;;;;4372763;28;658041;-68
2021/09/11 03:46:30;;;;;;;12.70;6.90;;;9.50;99.90;;;;;;4372648;28;657722;-69
2021/09/11 03:49:19;;;;;;;15.97;8.57;;;9.50;99.90;;;;;;4379268;28;656433;-69
2021/09/11 03:52:07;;;;;;;13.07;7.80;;;9.50;99.90;;;;;;4395150;28;656722;-69
2021/09/11 03:54:54;;;;;;;13.10;7.13;;;9.50;99.90;;;;;;4372671;28;657333;-68
2021/09/11 03:57:45;;;;;;;11.20;6.07;;;9.50;99.90;;;;;;4388293;28;656862;-69
2021/09/11 04:00:34;;;;;;;17.45;6.85;;;9.40;99.90;;;;;;4378923;28;656781;-69
2021/09/11 04:03:23;;;;;;;11.55;6.72;;;9.40;99.90;;;;;;4397997;28;657419;-69
2021/09/11 04:06:11;;;;;;;12.90;7.20;;;9.40;99.90;;;;;;4375177;28;657095;-68
2021/09/11 04:09:05;;;;;;;10.60;5.70;;;9.40;99.90;;;;;;4379242;28;656617;-68
2021/09/11 04:11:52;;;;;;;8.17;5.23;;;9.30;99.90;;;;;;4379755;28;656316;-69
2021/09/11 04:14:41;;;;;;;9.17;5.67;;;9.30;99.90;;;;;;4403279;28;655344;-68
2021/09/11 04:17:29;;;;;;;11.20;5.83;;;9.30;99.90;;;;;;4380907;28;656390;-68
2021/09/11 04:20:16;;;;;;;10.27;6.17;;;9.30;99.90;;;;;;4397731;28;657349;-68
2021/09/11 04:23:04;;;;;;;9.43;5.87;;;9.30;99.90;;;;;;4379224;28;657439;-68
2021/09/11 04:25:52;;;;;;;15.23;6.43;;;9.40;99.90;;;;;;4399870;28;656518;-68
2021/09/11 04:28:39;;;;;;;9.87;5.70;;;9.30;99.90;;;;;;4375448;28;658327;-68
2021/09/11 04:31:28;;;;;;;11.53;5.93;;;9.40;99.90;;;;;;4398976;28;655137;-68
2021/09/11 04:34:16;;;;;;;8.40;5.27;;;9.40;99.90;;;;;;4375262;28;656915;-68
2021/09/11 04:37:04;;;;;;;8.93;5.40;;;9.40;99.90;;;;;;4380532;28;655630;-68
2021/09/11 04:39:52;;;;;;;10.20;5.23;;;9.40;99.90;;;;;;4398435;28;655669;-67
2021/09/11 04:42:39;;;;;;;8.37;5.10;;;9.50;99.90;;;;;;4378894;28;657544;-69
2021/09/11 04:45:27;;;;;;;10.53;5.63;;;9.50;99.90;;;;;;4389473;28;655987;-69
2021/09/11 04:48:17;;;;;;;12.17;5.30;;;9.50;99.90;;;;;;4401924;28;657147;-68
2021/09/11 04:51:05;;;;;;;12.47;5.60;;;9.50;99.90;;;;;;4375885;28;657322;-68
2021/09/11 04:53:52;;;;;;;8.65;5.53;;;9.60;99.90;;;;;;4382489;28;656750;-68
2021/09/11 04:56:40;;;;;;;8.87;5.63;;;9.60;99.90;;;;;;4398720;28;655876;-68
2021/09/11 04:59:27;;;;;;;8.13;5.00;;;9.70;99.90;;;;;;4380745;28;656514;-68
2021/09/11 05:02:16;;;;;;;13.27;5.60;;;9.70;99.90;;;;;;4398648;28;656529;-68
2021/09/11 05:05:09;;;;;;;10.37;5.20;;;9.80;99.90;;;;;;4378891;28;656578;-69
2021/09/11 05:07:58;;;;;;;8.67;5.20;;;9.90;99.90;;;;;;4397016;28;656779;-68
2021/09/11 05:10:46;;;;;;;7.23;4.97;;;9.90;99.90;;;;;;4396999;28;656720;-68
2021/09/11 05:13:33;;;;;;;9.95;5.82;;;9.90;99.90;;;;;;4379958;28;655458;-68
2021/09/11 05:16:21;;;;;;;13.13;6.43;;;10.00;99.90;;;;;;4398959;28;655731;-68
2021/09/11 05:19:09;;;;;;;11.83;6.30;;;10.20;99.90;;;;;;4373337;28;657413;-68
2021/09/11 05:21:58;;;;;;;9.17;6.00;;;10.30;99.90;;;;;;4395825;28;657877;-68
2021/09/11 05:24:45;;;;;;;9.17;5.97;;;10.50;99.90;;;;;;4374468;28;657034;-68
2021/09/11 05:27:33;;;;;;;11.40;6.13;;;10.60;99.90;;;;;;4378620;28;656491;-69
2021/09/11 05:30:20;;;;;;;13.60;5.97;;;10.70;99.90;;;;;;4396519;28;659422;-68
2021/09/11 05:33:08;;;;;;;10.00;5.97;;;10.90;99.90;;;;;;4375007;28;657512;-68
2021/09/11 05:35:56;;;;;;;12.07;5.70;;;11.00;99.90;;;;;;4396297;28;658377;-68
2021/09/11 05:38:52;;;;;;;10.67;5.63;;;11.10;99.90;;;;;;4377143;28;657566;-69
2021/09/11 05:41:40;;;;;;;10.47;5.73;;;11.30;99.90;;;;;;4373155;28;657680;-68
2021/09/11 05:44:28;;;;;;;11.83;5.20;;;11.50;99.90;;;;;;4377267;28;657546;-69
2021/09/11 05:47:15;;;;;;;8.37;5.00;;;11.70;99.90;;;;;;4394968;28;658634;-68
2021/09/11 05:50:03;;;;;;;9.03;4.93;;;11.80;99.90;;;;;;4378291;28;656547;-69
2021/09/11 05:52:50;;;;;;;12.93;5.00;;;12.00;99.90;;;;;;4396349;28;657869;-68
2021/09/11 05:55:40;;;;;;;8.63;4.83;;;12.20;99.90;;;;;;4376788;28;657928;-69
2021/09/11 05:58:29;;;;;;;12.85;5.85;;;12.40;99.90;;;;;;4382845;28;656340;-69
2021/09/11 06:01:16;;;;;;;7.57;5.27;;;12.60;99.90;;;;;;4393671;28;658265;-69
2021/09/11 06:04:04;;;;;;;11.70;5.20;;;12.80;99.90;;;;;;4378135;28;656474;-69
2021/09/11 06:06:54;;;;;;;10.63;5.80;;;13.10;99.90;;;;;;4395380;28;657836;-69
2021/09/11 06:09:43;;;;;;;13.87;4.80;;;13.30;99.90;;;;;;4372789;28;658363;-68
2021/09/11 06:12:32;;;;;;;10.73;5.50;;;13.50;99.90;;;;;;4372509;28;658795;-69
2021/09/11 06:15:20;;;;;;;9.03;5.30;;;13.70;99.90;;;;;;4376783;28;658446;-69
2021/09/11 06:18:07;;;;;;;9.87;4.90;;;13.90;99.90;;;;;;4382806;28;656798;-69
2021/09/11 06:20:55;;;;;;;9.27;4.83;;;14.20;99.90;;;;;;4398111;28;656927;-69
2021/09/11 06:23:43;;;;;;;9.90;4.93;;;14.40;99.90;;;;;;4376406;28;656700;-69
2021/09/11 06:26:30;;;;;;;10.90;4.70;;;14.60;99.90;;;;;;4401421;28;657338;-69
2021/09/11 06:29:19;;;;;;;7.17;4.50;;;14.80;99.90;;;;;;4376297;28;657633;-69
2021/09/11 06:32:08;;;;;;;6.73;4.33;;;14.90;99.90;;;;;;4395986;28;656612;-69
2021/09/11 06:34:56;;;;;;;9.13;4.17;;;15.10;99.90;;;;;;4396141;28;658277;-69
2021/09/11 06:37:43;;;;;;;7.40;3.87;;;15.30;99.90;;;;;;4377452;28;656779;-69
2021/09/11 06:40:32;;;;;;;6.53;3.70;;;15.40;93.80;;;;;;4396336;28;656944;-69
2021/09/11 06:43:20;;;;;;;7.57;3.90;;;15.60;1.00;;;;;;4377960;28;657088;-69
2021/09/11 06:46:09;;;;;;;11.90;4.20;;;15.80;1.00;;;;;;4381430;28;656284;-69
2021/09/11 06:48:56;;;;;;;13.93;3.97;;;16.10;1.00;;;;;;4395536;28;656537;-69
2021/09/11 06:51:44;;;;;;;6.77;3.80;;;16.20;1.00;;;;;;4377459;28;657545;-69
2021/09/11 06:54:31;;;;;;;8.00;4.40;;;16.40;1.00;;;;;;4397297;28;655964;-69
2021/09/11 06:57:22;;;;;;;11.20;3.90;;;16.60;1.00;;;;;;4374591;28;656590;-68
2021/09/11 07:00:10;;;;;;;8.13;4.43;;;16.80;99.90;;;;;;4377302;28;657914;-69
2021/09/11 07:02:59;;;;;;;12.97;4.13;;;17.00;99.90;;;;;;4377280;28;656291;-68
2021/09/11 07:05:47;;;;;;;13.97;3.93;;;17.30;99.90;;;;;;4387200;28;657517;-69
2021/09/11 07:08:35;;;;;;;13.27;4.83;;;17.50;99.90;;;;;;4381595;28;659143;-69
2021/09/11 07:11:23;;;;;;;8.07;4.00;;;17.70;99.90;;;;;;4359364;28;657909;-69
2021/09/11 07:14:10;;;;;;;10.00;4.43;;;17.90;99.90;;;;;;4378464;28;658093;-69
2021/09/11 07:16:58;;;;;;;7.67;3.97;;;18.00;99.90;;;;;;4358760;28;657454;-69
2021/09/11 07:19:47;;;;;;;9.77;4.67;;;18.20;1.00;;;;;;4379517;28;657906;-69
2021/09/11 07:22:34;;;;;;;9.07;4.90;;;18.40;1.00;;;;;;4361144;28;655715;-69
2021/09/11 07:25:22;;;;;;;9.43;5.17;;;18.60;1.00;;;;;;4370299;28;655641;-69
2021/09/11 07:28:10;;;;;;;12.90;5.43;;;18.80;1.00;;;;;;4383320;28;655815;-69
2021/09/11 07:30:58;;;;;;;19.20;5.30;;;19.00;1.00;;;;;;4360345;28;656491;-69
2021/09/11 07:33:45;;;;;;;8.00;4.40;;;19.20;1.00;;;;;;4382402;28;657570;-69
2021/09/11 07:36:35;;;;;;;11.93;4.87;;;19.40;1.00;;;;;;4364279;28;655403;-69
2021/09/11 07:39:22;;;;;;;8.75;4.38;;;19.50;1.00;;;;;;4363485;28;656448;-69
2021/09/11 07:42:10;;;;;;;10.97;4.23;;;19.60;1.00;;;;;;4386847;28;657061;-69
2021/09/11 07:44:58;;;;;;;7.57;4.30;;;19.70;99.90;;;;;;4362284;28;656440;-67
2021/09/11 07:47:46;;;;;;;12.00;4.60;;;19.90;1.00;;;;;;4381754;28;657196;-67
2021/09/11 07:50:35;;;;;;;8.60;4.47;;;20.00;1.00;;;;;;4362389;28;656404;-67
2021/09/11 07:53:24;;;;;;;11.23;4.57;;;20.20;1.00;;;;;;4363985;28;656018;-67
2021/09/11 07:56:12;;;;;;;10.50;4.70;;;20.40;99.90;;;;;;4382455;28;656219;-68
2021/09/11 07:59:00;;;;;;;9.10;4.40;;;20.60;99.90;;;;;;4384398;28;658854;-67
2021/09/11 08:01:48;;;;;;;11.13;4.57;;;20.70;99.90;;;;;;4362637;28;656394;-67
2021/09/11 08:04:35;;;;;;;8.97;4.17;;;20.70;1.00;;;;;;4383494;28;658125;-67
2021/09/11 08:07:27;;;;;;;9.80;4.20;;;21.00;99.90;;;;;;4375693;28;655428;-68
2021/09/11 08:10:16;;;;;;;14.33;4.40;;;21.30;24.10;;;;;;4374441;28;657975;-68
2021/09/11 08:13:04;;;;;;;9.47;4.03;;;21.40;1.00;;;;;;4378541;28;658792;-68
2021/09/11 08:15:51;;;;;;;8.40;4.13;;;21.60;99.90;;;;;;4399535;28;655927;-68
2021/09/11 08:18:39;;;;;;;8.17;3.80;;;21.80;1.00;;;;;;4375570;28;657390;-68
2021/09/11 08:21:26;;;;;;;10.70;3.97;;;21.90;99.90;;;;;;4399317;28;656084;-68
2021/09/11 08:24:14;;;;;;;9.57;4.30;;;22.00;1.00;;;;;;4374230;28;658840;-68
2021/09/11 08:27:03;;;;;;;6.43;4.00;;;22.10;1.00;;;;;;4398993;28;655109;-68
2021/09/11 08:29:51;;;;;;;8.43;3.90;;;22.30;99.90;;;;;;4376387;28;655958;-69
2021/09/11 08:32:39;;;;;;;8.13;4.00;;;22.70;1.00;;;;;;4375328;28;656564;-68
2021/09/11 08:35:27;;;;;;;10.63;4.03;;;22.80;1.00;;;;;;4398656;28;656619;-68
2021/09/11 08:38:14;;;;;;;7.13;3.70;;;23.00;1.00;;;;;;4374788;28;658191;-68
2021/09/11 08:41:03;;;;;;;5.67;3.30;;;23.40;45.10;;;;;;4391675;28;655559;-69
2021/09/11 08:43:52;;;;;;;6.13;3.70;;;23.50;1.00;;;;;;4397422;28;656849;-68
2021/09/11 08:46:40;;;;;;;8.77;3.57;;;23.60;99.90;;;;;;4376411;28;656262;-68
2021/09/11 08:49:30;;;;;;;7.63;4.03;;;23.60;1.00;;;;;;4379164;28;656422;-68
2021/09/11 08:52:17;;;;;;;11.65;3.78;;;23.60;1.00;;;;;;4382875;28;655459;-69
2021/09/11 08:55:06;;;;;;;7.60;3.23;;;23.50;99.90;;;;;;4398142;28;656932;-68
2021/09/11 08:57:58;;;;;;;10.40;3.80;;;23.60;1.00;;;;;;4378908;28;657023;-68
2021/09/11 09:00:49;;;;;;;12.70;3.77;;;23.80;1.00;;;;;;4374522;28;656806;-68
2021/09/11 09:03:38;;;;;;;7.83;3.70;;;23.80;1.00;;;;;;4375043;28;657647;-68
2021/09/11 09:06:27;;;;;;;9.90;3.50;;;24.00;1.00;;;;;;4375494;28;655968;-69
2021/09/11 09:09:15;;;;;;;10.90;4.10;;;23.90;99.90;;;;;;4380164;28;655993;-68
2021/09/11 09:12:12;;;;;;;8.47;3.13;;;24.10;99.90;;;;;;4377298;28;657613;-69
2021/09/11 09:15:05;;;;;;;6.03;2.87;;;24.30;96.40;;;;;;4375004;28;657303;-69
2021/09/11 09:17:55;;;;;;;7.47;3.50;;;24.30;1.00;;;;;;4352640;28;657582;-69
2021/09/11 09:20:43;;;;;;;13.37;3.50;;;24.50;99.90;;;;;;4380151;28;655405;-68
2021/09/11 09:23:31;;;;;;;4.77;3.23;;;24.60;25.50;;;;;;4396247;28;657977;-69
2021/09/11 09:26:18;;;;;;;7.20;2.57;;;24.90;1.00;;;;;;4377866;28;656485;-69
2021/09/11 09:29:08;;;;;;;8.52;3.33;;;24.80;1.00;;;;;;4398550;28;655924;-68
2021/09/11 09:31:59;;;;;;;4.47;3.10;;;24.80;1.00;;;;;;4374837;28;656273;-68
2021/09/11 09:34:48;;;;;;;8.35;3.55;;;24.80;1.00;;;;;;4375571;28;656018;-69
2021/09/11 09:37:35;;;;;;;11.90;3.33;;;24.80;1.00;;;;;;4374700;28;656550;-69
2021/09/11 09:40:38;;;;;;;8.90;3.22;;;25.10;1.00;;;;;;4378148;28;656948;-69
2021/09/11 09:43:30;;;;;;;8.00;3.10;;;25.30;1.00;;;;;;4375356;28;656468;-69
2021/09/11 09:46:19;;;;;;;9.40;3.47;;;25.20;1.00;;;;;;4356847;28;655949;-69
2021/09/11 09:49:10;;;;;;;10.57;3.50;;;25.30;1.00;;;;;;4397769;28;656020;-68
2021/09/11 09:52:03;;;;;;;9.63;3.40;;;25.50;99.90;;;;;;4377553;28;656654;-69
2021/09/11 09:54:51;;;;;;;10.88;3.88;;;25.40;99.90;;;;;;4373473;28;657070;-69
2021/09/11 09:57:40;;;;;;;5.88;3.40;;;25.40;99.90;;;;;;4374669;28;657407;-68
2021/09/11 10:00:28;;;;;;;6.75;2.78;;;25.40;99.90;;;;;;4377664;28;657061;-69
2021/09/11 10:03:16;;;;;;;7.55;3.30;;;25.50;99.90;;;;;;4396520;28;656909;-68
2021/09/11 10:06:07;;;;;;;4.38;2.70;;;25.80;99.90;;;;;;4375696;28;656600;-68
2021/09/11 10:08:58;;;;;;;8.07;3.33;;;25.80;99.90;;;;;;4374196;28;656913;-68
2021/09/11 10:11:51;;;;;;;7.95;2.88;;;25.60;99.90;;;;;;4374048;28;657797;-68
2021/09/11 10:14:38;;;;;;;4.50;3.03;;;25.70;99.90;;;;;;4351458;28;656990;-69
2021/09/11 10:17:32;;;;;;;6.68;2.80;;;25.70;99.90;;;;;;4396629;28;657020;-68
2021/09/11 10:20:20;;;;;;;8.98;3.28;;;25.90;99.90;;;;;;4373840;28;657036;-68
2021/09/11 10:23:10;;;;;;;10.95;3.20;;;26.10;99.90;;;;;;4377432;28;656461;-69
2021/09/11 10:26:00;;;;;;;6.55;3.13;;;26.40;99.90;;;;;;4376228;28;658097;-68
2021/09/11 10:28:47;;;;;;;7.40;3.33;;;26.60;99.90;;;;;;4381254;28;656788;-69
2021/09/11 10:31:55;;;;;;;7.28;2.85;;;26.50;90.70;;;;;;4401174;28;657817;-68
2021/09/11 10:34:57;;;;;;;9.68;3.58;;;26.20;36.10;;;;;;4352818;28;656951;-69
2021/09/11 10:37:45;;;;;;;9.18;3.75;;;26.50;92.30;;;;;;4350906;28;656896;-69
2021/09/11 10:40:34;;;;;;;10.65;3.67;;;26.70;52.90;;;;;;4377580;28;656624;-69
2021/09/11 10:43:29;;;;;;;9.73;3.80;;;26.70;25.60;;;;;;4392903;28;658249;-69
2021/09/11 10:46:16;;;;;;;11.93;3.85;;;26.60;1.00;;;;;;4373677;28;656497;-68
2021/09/11 10:49:04;;;;;;;13.27;3.90;;;26.70;1.00;;;;;;4377622;28;656674;-69
2021/09/11 10:52:00;;;;;;;9.80;3.90;;;27.10;99.90;;;;;;4396300;28;657703;-68
2021/09/11 10:54:50;;;;;;;8.32;3.42;;;26.70;9.20;;;;;;4377762;28;656458;-69
2021/09/11 10:57:40;;;;;;;9.82;3.35;;;26.50;1.00;;;;;;4381557;28;656088;-69
2021/09/11 11:00:29;;;;;;;7.00;3.58;;;26.60;1.00;;;;;;4378514;28;655573;-69
2021/09/11 11:03:20;;;;;;;12.43;4.20;;;26.80;1.00;;;;;;4397021;28;655020;-69
2021/09/11 11:06:08;;;;;;;11.93;3.60;;;26.70;1.00;;;;;;4377479;28;656590;-69
2021/09/11 11:08:55;;;;;;;10.70;4.03;;;26.60;1.00;;;;;;4402902;28;657013;-68
2021/09/11 11:11:43;;;;;;;5.32;3.45;;;26.70;1.00;;;;;;4380362;28;656350;-68
2021/09/11 11:14:31;;;;;;;8.63;3.88;;;26.80;1.00;;;;;;4400190;28;656549;-69
2021/09/11 11:17:20;;;;;;;9.07;3.58;;;27.10;1.00;;;;;;4377277;28;656607;-69
2021/09/11 11:20:09;;;;;;;5.32;3.42;;;27.40;1.00;;;;;;4381651;28;655450;-67
2021/09/11 11:22:58;;;;;;;7.35;3.92;;;27.60;1.00;;;;;;4399647;28;655692;-67
2021/09/11 11:25:45;;;;;;;8.00;3.53;;;27.70;1.00;;;;;;4377634;28;656733;-67
2021/09/11 11:28:33;;;;;;;10.60;3.50;;;27.60;1.00;;;;;;4381149;28;655239;-68
2021/09/11 11:31:22;;;;;;;9.35;3.60;;;27.50;1.00;;;;;;4398553;28;657669;-68
2021/09/11 11:34:11;;;;;;;10.15;3.80;;;27.60;1.00;;;;;;4377770;28;657459;-68
2021/09/11 11:37:00;;;;;;;13.52;3.33;;;27.70;1.00;;;;;;4376465;28;656645;-67
2021/09/11 11:39:47;;;;;;;8.45;2.92;;;28.00;1.00;;;;;;4379705;28;656661;-68
2021/09/11 11:42:37;;;;;;;6.85;2.95;;;28.10;1.00;;;;;;4403866;28;656476;-67
2021/09/11 11:45:27;;;;;;;4.68;2.97;;;28.20;1.00;;;;;;4377026;28;656893;-67
2021/09/11 11:48:16;;;;;;;8.30;2.80;;;27.90;1.00;;;;;;4377091;28;656867;-67
2021/09/11 11:51:11;;;;;;;17.63;3.20;;;27.80;1.00;;;;;;4377134;28;655689;-68
2021/09/11 11:53:59;;;;;;;15.07;3.20;;;27.50;1.00;;;;;;4353158;28;657656;-67
2021/09/11 11:56:48;;;;;;;6.90;2.70;;;27.50;1.00;;;;;;4396805;28;656488;-67
2021/09/11 11:59:36;;;;;;;6.88;2.95;;;27.50;1.00;;;;;;4376750;28;657003;-67
2021/09/11 12:02:24;;;;;;;6.75;2.63;;;27.50;1.00;;;;;;4380975;28;655377;-67
2021/09/11 12:05:15;;;;;;;7.47;2.58;;;27.80;1.00;;;;;;4393483;28;655492;-68
2021/09/11 12:08:05;;;;;;;5.25;2.72;;;28.10;1.00;;;;;;4388613;28;655559;-68
2021/09/11 12:10:53;;;;;;;6.78;2.70;;;28.10;1.00;;;;;;4380634;28;655528;-69
2021/09/11 12:13:40;;;;;;;7.30;2.78;;;28.40;1.00;;;;;;4399443;28;655970;-67
2021/09/11 12:16:28;;;;;;;8.55;2.22;;;28.00;1.00;;;;;;4380806;28;656049;-67
2021/09/11 12:19:18;;;;;;;5.22;2.40;;;28.10;1.00;;;;;;4398594;28;656642;-67
2021/09/11 12:22:17;;;;;;;3.70;2.40;;;28.40;1.00;;;;;;4376781;28;656773;-67
2021/09/11 12:25:07;;;;;;;7.15;2.63;;;28.40;1.00;;;;;;4351149;28;656699;-68
2021/09/11 12:27:55;;;;;;;5.60;2.55;;;28.60;1.00;;;;;;4376103;28;657346;-67
2021/09/11 12:30:52;;;;;;;3.53;2.20;;;29.00;1.00;;;;;;4379920;28;655758;-68
2021/09/11 12:33:48;;;;;;;5.93;2.60;;;28.90;1.00;;;;;;4380655;28;655615;-67
2021/09/11 12:36:36;;;;;;;6.10;2.53;;;28.90;1.00;;;;;;4376219;28;655979;-67
2021/09/11 12:39:26;;;;;;;7.82;2.40;;;28.80;1.00;;;;;;4376578;28;657264;-68
2021/09/11 12:42:17;;;;;;;4.43;2.67;;;29.10;1.00;;;;;;4380357;28;656061;-68
2021/09/11 12:45:06;;;;;;;5.03;2.80;;;29.20;1.00;;;;;;4380505;28;655409;-68
2021/09/11 12:47:53;;;;;;;8.02;2.88;;;29.40;1.00;;;;;;4380323;28;656028;-68
2021/09/11 12:50:41;;;;;;;9.82;2.53;;;29.10;1.00;;;;;;4398549;28;656059;-67
2021/09/11 12:53:29;;;;;;;6.22;2.70;;;28.60;1.00;;;;;;4380290;28;655691;-67
2021/09/11 12:56:21;;;;;;;5.03;2.70;;;28.60;1.00;;;;;;4398763;28;655488;-67
2021/09/11 12:59:11;;;;;;;11.57;2.60;;;28.20;1.00;;;;;;4353696;28;656499;-67
2021/09/11 13:01:58;;;;;;;5.68;2.53;;;28.20;1.00;;;;;;4379028;28;656502;-67
2021/09/11 13:04:47;;;;;;;4.20;2.20;;;28.50;1.00;;;;;;4398757;28;655806;-66
2021/09/11 13:07:34;;;;;;;4.75;2.83;;;28.00;1.00;;;;;;4375750;28;656372;-67
2021/09/11 13:10:22;;;;;;;5.03;2.28;;;28.50;31.90;;;;;;4386516;28;655496;-68
2021/09/11 13:13:10;;;;;;;4.30;2.70;;;28.80;1.00;;;;;;4400814;28;657081;-66
2021/09/11 13:16:00;;;;;;;4.47;2.10;;;29.10;99.90;;;;;;4378671;28;655627;-68
2021/09/11 13:18:48;;;;;;;4.25;2.40;;;29.30;99.90;;;;;;4380152;28;656655;-67
2021/09/11 13:21:36;;;;;;;6.03;2.65;;;29.40;99.90;;;;;;4397262;28;657108;-67
2021/09/11 13:24:23;;;;;;;4.82;2.40;;;29.80;99.90;;;;;;4377191;28;657120;-67
2021/09/11 13:27:11;;;;;;;10.88;4.72;;;30.50;1.00;;;;;;4396428;28;657038;-67
2021/09/11 13:29:59;;;;;;;6.78;2.55;;;30.20;6.30;;;;;;4377599;28;656394;-67
2021/09/11 13:32:48;;;;;;;11.38;2.45;;;30.10;1.00;;;;;;4398354;28;655996;-67
2021/09/11 13:35:37;;;;;;;6.53;2.58;;;30.60;1.00;;;;;;4374814;28;657529;-67
2021/09/11 13:38:25;;;;;;;7.78;3.00;;;30.20;23.30;;;;;;4374730;28;656582;-67
2021/09/11 13:41:12;;;;;;;8.93;2.63;;;30.30;1.00;;;;;;4378764;28;656478;-68
2021/09/11 13:44:00;;;;;;;6.47;2.75;;;30.30;99.90;;;;;;4402218;28;657080;-67
2021/09/11 13:46:48;;;;;;;5.20;2.50;;;30.00;99.90;;;;;;4378737;28;656829;-67
2021/09/11 13:49:37;;;;;;;5.30;2.30;;;29.90;99.90;;;;;;4394365;28;656781;-67
2021/09/11 13:52:28;;;;;;;5.53;2.50;;;29.90;99.90;;;;;;4374750;28;657143;-67
2021/09/11 13:55:16;;;;;;;5.18;2.33;;;30.10;1.00;;;;;;4374518;28;657516;-67
2021/09/11 13:58:04;;;;;;;4.82;2.90;;;30.10;1.00;;;;;;4375555;28;655597;-67
2021/09/11 14:00:52;;;;;;;4.10;2.42;;;30.40;1.00;;;;;;4397678;28;655173;-67
2021/09/11 14:03:39;;;;;;;5.07;2.35;;;30.30;1.00;;;;;;4375313;28;657371;-67
2021/09/11 14:06:29;;;;;;;10.00;3.75;;;30.60;1.00;;;;;;4387312;28;655450;-67
2021/09/11 14:09:17;;;;;;;6.40;2.55;;;30.60;1.00;;;;;;4396877;28;657306;-67
2021/09/11 14:12:05;;;;;;;4.55;2.40;;;30.60;99.90;;;;;;4375378;28;656012;-67
2021/09/11 14:14:53;;;;;;;5.32;2.35;;;30.40;99.90;;;;;;4377988;28;656437;-67
2021/09/11 14:17:41;;;;;;;8.88;2.72;;;30.50;99.90;;;;;;4396703;28;657262;-67
2021/09/11 14:20:29;;;;;;;4.82;2.50;;;30.80;99.90;;;;;;4374455;28;656873;-67
2021/09/11 14:23:18;;;;;;;6.88;2.80;;;30.80;99.90;;;;;;4396490;28;656783;-67
2021/09/11 14:26:07;;;;;;;6.05;2.70;;;31.10;1.00;;;;;;4374024;28;657610;-67